sensor_id;sensor_type;location;lat;lon;timestamp;temperature;humidity
68177;DHT22;56478;50.982;7.032;2022-08-21T00:02:12;18.24;72.10
68177;DHT22;56478;50.982;7.032;2022-08-21T00:04:38;18.21;72.83
68177;DHT22;56478;50.982;7.032;2022-08-21T00:07:03;18.23;72.68
68177;DHT22;56478;50.982;7.032;2022-08-21T00:09:29;18.17;72.58
68177;DHT22;56478;50.982;7.032;2022-08-21T00:11:54;18.23;72.90
68177;DHT22;56478;50.982;7.032;2022-08-21T00:14:19;18.21;72.79
68177;DHT22;56478;50.982;7.032;2022-08-21T00:16:45;18.11;72.89
68177;DHT22;56478;50.982;7.032;2022-08-21T00:19:10;18.10;72.80
68177;DHT22;56478;50.982;7.032;2022-08-21T00:21:35;18.09;72.70
68177;DHT22;56478;50.982;7.032;2022-08-21T00:24:01;18.09;72.89
68177;DHT22;56478;50.982;7.032;2022-08-21T00:26:27;18.03;71.86
68177;DHT22;56478;50.982;7.032;2022-08-21T00:28:52;17.99;71.58
68177;DHT22;56478;50.982;7.032;2022-08-21T00:31:18;18.02;72.34
68177;DHT22;56478;50.982;7.032;2022-08-21T00:33:43;18.03;72.15
68177;DHT22;56478;50.982;7.032;2022-08-21T00:36:09;17.97;72.20
68177;DHT22;56478;50.982;7.032;2022-08-21T00:38:35;17.99;72.25
68177;DHT22;56478;50.982;7.032;2022-08-21T00:41:02;17.93;72.14
68177;DHT22;56478;50.982;7.032;2022-08-21T00:43:29;17.87;72.82
68177;DHT22;56478;50.982;7.032;2022-08-21T00:45:55;17.87;72.14
68177;DHT22;56478;50.982;7.032;2022-08-21T00:48:21;17.85;72.09
68177;DHT22;56478;50.982;7.032;2022-08-21T00:50:51;17.82;72.62
68177;DHT22;56478;50.982;7.032;2022-08-21T00:53:18;17.79;72.41
68177;DHT22;56478;50.982;7.032;2022-08-21T00:55:43;17.76;72.43
68177;DHT22;56478;50.982;7.032;2022-08-21T00:58:11;17.72;72.56
68177;DHT22;56478;50.982;7.032;2022-08-21T01:00:37;17.64;72.65
68177;DHT22;56478;50.982;7.032;2022-08-21T01:03:06;17.66;72.35
68177;DHT22;56478;50.982;7.032;2022-08-21T01:05:32;17.64;72.75
68177;DHT22;56478;50.982;7.032;2022-08-21T01:07:57;17.65;72.39
68177;DHT22;56478;50.982;7.032;2022-08-21T01:10:23;17.57;72.14
68177;DHT22;56478;50.982;7.032;2022-08-21T01:12:48;17.57;72.57
68177;DHT22;56478;50.982;7.032;2022-08-21T01:15:15;17.55;72.26
68177;DHT22;56478;50.982;7.032;2022-08-21T01:17:42;17.52;72.01
68177;DHT22;56478;50.982;7.032;2022-08-21T01:20:08;17.47;72.51
68177;DHT22;56478;50.982;7.032;2022-08-21T01:22:34;17.54;72.41
68177;DHT22;56478;50.982;7.032;2022-08-21T01:24:59;17.57;72.08
68177;DHT22;56478;50.982;7.032;2022-08-21T01:27:24;17.57;72.06
68177;DHT22;56478;50.982;7.032;2022-08-21T01:29:57;17.55;72.18
68177;DHT22;56478;50.982;7.032;2022-08-21T01:32:25;17.61;71.82
68177;DHT22;56478;50.982;7.032;2022-08-21T01:34:51;17.65;71.32
68177;DHT22;56478;50.982;7.032;2022-08-21T01:37:16;17.61;71.77
68177;DHT22;56478;50.982;7.032;2022-08-21T01:39:42;17.54;71.76
68177;DHT22;56478;50.982;7.032;2022-08-21T01:42:08;17.48;71.12
68177;DHT22;56478;50.982;7.032;2022-08-21T01:44:33;17.44;71.65
68177;DHT22;56478;50.982;7.032;2022-08-21T01:47:00;17.35;72.22
68177;DHT22;56478;50.982;7.032;2022-08-21T01:49:25;17.35;72.48
68177;DHT22;56478;50.982;7.032;2022-08-21T01:51:51;17.32;71.70
68177;DHT22;56478;50.982;7.032;2022-08-21T01:54:17;17.24;71.87
68177;DHT22;56478;50.982;7.032;2022-08-21T01:56:44;17.24;72.59
68177;DHT22;56478;50.982;7.032;2022-08-21T01:59:10;17.24;72.64
68177;DHT22;56478;50.982;7.032;2022-08-21T02:01:36;17.14;72.75
68177;DHT22;56478;50.982;7.032;2022-08-21T02:04:01;17.06;72.87
68177;DHT22;56478;50.982;7.032;2022-08-21T02:06:27;16.95;72.84
68177;DHT22;56478;50.982;7.032;2022-08-21T02:08:52;16.88;73.10
68177;DHT22;56478;50.982;7.032;2022-08-21T02:11:18;16.79;73.46
68177;DHT22;56478;50.982;7.032;2022-08-21T02:13:44;16.79;73.15
68177;DHT22;56478;50.982;7.032;2022-08-21T02:16:09;16.89;73.78
68177;DHT22;56478;50.982;7.032;2022-08-21T02:18:35;16.85;73.29
68177;DHT22;56478;50.982;7.032;2022-08-21T02:21:00;16.89;73.08
68177;DHT22;56478;50.982;7.032;2022-08-21T02:23:26;16.90;73.55
68177;DHT22;56478;50.982;7.032;2022-08-21T02:25:51;16.88;73.96
68177;DHT22;56478;50.982;7.032;2022-08-21T02:28:17;16.85;73.16
68177;DHT22;56478;50.982;7.032;2022-08-21T02:30:45;16.89;73.36
68177;DHT22;56478;50.982;7.032;2022-08-21T02:33:10;16.85;73.30
68177;DHT22;56478;50.982;7.032;2022-08-21T02:35:36;16.82;73.38
68177;DHT22;56478;50.982;7.032;2022-08-21T02:38:03;16.88;73.45
68177;DHT22;56478;50.982;7.032;2022-08-21T02:40:30;16.89;73.12
68177;DHT22;56478;50.982;7.032;2022-08-21T02:42:56;16.82;73.82
68177;DHT22;56478;50.982;7.032;2022-08-21T02:45:21;16.88;73.33
68177;DHT22;56478;50.982;7.032;2022-08-21T02:47:50;16.78;73.65
68177;DHT22;56478;50.982;7.032;2022-08-21T02:50:20;16.73;73.47
68177;DHT22;56478;50.982;7.032;2022-08-21T02:52:46;16.73;73.74
68177;DHT22;56478;50.982;7.032;2022-08-21T02:55:11;16.72;74.27
68177;DHT22;56478;50.982;7.032;2022-08-21T02:57:36;16.69;74.21
68177;DHT22;56478;50.982;7.032;2022-08-21T03:00:03;16.68;74.11
68177;DHT22;56478;50.982;7.032;2022-08-21T03:02:29;16.65;73.98
68177;DHT22;56478;50.982;7.032;2022-08-21T03:04:54;16.67;74.24
68177;DHT22;56478;50.982;7.032;2022-08-21T03:07:20;16.65;74.01
68177;DHT22;56478;50.982;7.032;2022-08-21T03:09:46;16.64;74.70
68177;DHT22;56478;50.982;7.032;2022-08-21T03:12:12;16.58;73.85
68177;DHT22;56478;50.982;7.032;2022-08-21T03:14:37;16.60;73.90
68177;DHT22;56478;50.982;7.032;2022-08-21T03:17:03;16.62;74.60
68177;DHT22;56478;50.982;7.032;2022-08-21T03:19:28;16.65;74.59
68177;DHT22;56478;50.982;7.032;2022-08-21T03:21:54;16.61;74.32
68177;DHT22;56478;50.982;7.032;2022-08-21T03:24:19;16.58;74.52
68177;DHT22;56478;50.982;7.032;2022-08-21T03:26:44;16.50;74.44
68177;DHT22;56478;50.982;7.032;2022-08-21T03:29:10;16.48;74.89
68177;DHT22;56478;50.982;7.032;2022-08-21T03:31:35;16.44;74.73
68177;DHT22;56478;50.982;7.032;2022-08-21T03:34:01;16.43;75.36
68177;DHT22;56478;50.982;7.032;2022-08-21T03:36:26;16.44;74.69
68177;DHT22;56478;50.982;7.032;2022-08-21T03:38:51;16.50;74.95
68177;DHT22;56478;50.982;7.032;2022-08-21T03:41:17;16.45;75.14
68177;DHT22;56478;50.982;7.032;2022-08-21T03:43:42;16.44;74.93
68177;DHT22;56478;50.982;7.032;2022-08-21T03:46:08;16.47;74.91
68177;DHT22;56478;50.982;7.032;2022-08-21T03:48:33;16.40;74.79
68177;DHT22;56478;50.982;7.032;2022-08-21T03:50:59;16.38;74.86
68177;DHT22;56478;50.982;7.032;2022-08-21T03:53:25;16.35;75.37
68177;DHT22;56478;50.982;7.032;2022-08-21T03:55:51;16.26;74.85
68177;DHT22;56478;50.982;7.032;2022-08-21T03:58:18;16.34;74.93
68177;DHT22;56478;50.982;7.032;2022-08-21T04:00:47;16.35;75.37
68177;DHT22;56478;50.982;7.032;2022-08-21T04:03:13;16.24;74.63
68177;DHT22;56478;50.982;7.032;2022-08-21T04:05:38;16.33;75.27
68177;DHT22;56478;50.982;7.032;2022-08-21T04:08:05;16.26;75.32
68177;DHT22;56478;50.982;7.032;2022-08-21T04:10:32;16.21;75.62
68177;DHT22;56478;50.982;7.032;2022-08-21T04:12:57;16.21;75.54
68177;DHT22;56478;50.982;7.032;2022-08-21T04:15:23;16.24;75.18
68177;DHT22;56478;50.982;7.032;2022-08-21T04:17:49;16.23;75.28
68177;DHT22;56478;50.982;7.032;2022-08-21T04:20:15;16.14;75.39
68177;DHT22;56478;50.982;7.032;2022-08-21T04:22:41;16.21;75.37
68177;DHT22;56478;50.982;7.032;2022-08-21T04:25:06;16.13;75.39
68177;DHT22;56478;50.982;7.032;2022-08-21T04:27:32;16.12;75.19
68177;DHT22;56478;50.982;7.032;2022-08-21T04:29:58;16.14;75.43
68177;DHT22;56478;50.982;7.032;2022-08-21T04:32:24;16.09;75.47
68177;DHT22;56478;50.982;7.032;2022-08-21T04:34:49;16.09;75.55
68177;DHT22;56478;50.982;7.032;2022-08-21T04:37:15;16.05;75.69
68177;DHT22;56478;50.982;7.032;2022-08-21T04:39:41;16.03;76.01
68177;DHT22;56478;50.982;7.032;2022-08-21T04:42:06;16.08;75.86
68177;DHT22;56478;50.982;7.032;2022-08-21T04:44:31;16.10;75.71
68177;DHT22;56478;50.982;7.032;2022-08-21T04:46:57;16.12;75.90
68177;DHT22;56478;50.982;7.032;2022-08-21T04:49:23;16.10;75.14
68177;DHT22;56478;50.982;7.032;2022-08-21T04:51:48;16.10;75.36
68177;DHT22;56478;50.982;7.032;2022-08-21T04:54:14;16.19;75.28
68177;DHT22;56478;50.982;7.032;2022-08-21T04:56:45;16.16;75.40
68177;DHT22;56478;50.982;7.032;2022-08-21T04:59:23;16.16;74.91
68177;DHT22;56478;50.982;7.032;2022-08-21T05:01:49;16.17;75.08
68177;DHT22;56478;50.982;7.032;2022-08-21T05:04:17;16.20;75.15
68177;DHT22;56478;50.982;7.032;2022-08-21T05:06:43;16.24;75.20
68177;DHT22;56478;50.982;7.032;2022-08-21T05:09:12;16.27;75.25
68177;DHT22;56478;50.982;7.032;2022-08-21T05:11:39;16.23;74.99
68177;DHT22;56478;50.982;7.032;2022-08-21T05:14:06;16.31;75.27
68177;DHT22;56478;50.982;7.032;2022-08-21T05:16:31;16.40;74.97
68177;DHT22;56478;50.982;7.032;2022-08-21T05:18:56;16.45;74.98
68177;DHT22;56478;50.982;7.032;2022-08-21T05:21:22;16.45;74.45
68177;DHT22;56478;50.982;7.032;2022-08-21T05:23:47;16.47;74.97
68177;DHT22;56478;50.982;7.032;2022-08-21T05:26:13;16.43;74.14
68177;DHT22;56478;50.982;7.032;2022-08-21T05:28:38;16.50;74.93
68177;DHT22;56478;50.982;7.032;2022-08-21T05:31:03;16.51;74.15
68177;DHT22;56478;50.982;7.032;2022-08-21T05:33:29;16.48;73.57
68177;DHT22;56478;50.982;7.032;2022-08-21T05:35:54;16.52;74.72
68177;DHT22;56478;50.982;7.032;2022-08-21T05:38:21;16.44;73.52
68177;DHT22;56478;50.982;7.032;2022-08-21T05:40:46;16.35;73.93
68177;DHT22;56478;50.982;7.032;2022-08-21T05:43:12;16.28;74.77
68177;DHT22;56478;50.982;7.032;2022-08-21T05:45:37;16.23;74.63
68177;DHT22;56478;50.982;7.032;2022-08-21T05:48:09;16.21;74.52
68177;DHT22;56478;50.982;7.032;2022-08-21T05:50:35;16.16;74.81
68177;DHT22;56478;50.982;7.032;2022-08-21T05:53:00;16.21;74.98
68177;DHT22;56478;50.982;7.032;2022-08-21T05:55:26;16.20;74.61
68177;DHT22;56478;50.982;7.032;2022-08-21T05:57:51;16.27;74.71
68177;DHT22;56478;50.982;7.032;2022-08-21T06:00:17;16.50;74.45
68177;DHT22;56478;50.982;7.032;2022-08-21T06:02:42;16.61;73.93
68177;DHT22;56478;50.982;7.032;2022-08-21T06:05:08;16.75;74.09
68177;DHT22;56478;50.982;7.032;2022-08-21T06:07:33;16.79;72.65
68177;DHT22;56478;50.982;7.032;2022-08-21T06:09:59;16.92;72.30
68177;DHT22;56478;50.982;7.032;2022-08-21T06:12:25;16.96;71.93
68177;DHT22;56478;50.982;7.032;2022-08-21T06:14:50;17.00;71.94
68177;DHT22;56478;50.982;7.032;2022-08-21T06:17:17;17.13;71.55
68177;DHT22;56478;50.982;7.032;2022-08-21T06:19:43;17.13;71.52
68177;DHT22;56478;50.982;7.032;2022-08-21T06:22:08;17.26;71.02
68177;DHT22;56478;50.982;7.032;2022-08-21T06:24:34;17.42;71.47
68177;DHT22;56478;50.982;7.032;2022-08-21T06:27:03;18.04;68.74
68177;DHT22;56478;50.982;7.032;2022-08-21T06:29:29;18.76;66.24
68177;DHT22;56478;50.982;7.032;2022-08-21T06:31:54;20.49;62.71
68177;DHT22;56478;50.982;7.032;2022-08-21T06:34:19;22.32;55.37
68177;DHT22;56478;50.982;7.032;2022-08-21T06:36:45;23.07;53.83
68177;DHT22;56478;50.982;7.032;2022-08-21T06:39:10;22.98;54.75
68177;DHT22;56478;50.982;7.032;2022-08-21T06:41:36;22.84;53.75
68177;DHT22;56478;50.982;7.032;2022-08-21T06:44:01;22.79;53.66
68177;DHT22;56478;50.982;7.032;2022-08-21T06:46:28;24.45;49.90
68177;DHT22;56478;50.982;7.032;2022-08-21T06:48:53;25.21;47.97
68177;DHT22;56478;50.982;7.032;2022-08-21T06:51:19;26.17;45.86
68177;DHT22;56478;50.982;7.032;2022-08-21T06:53:45;27.04;44.39
68177;DHT22;56478;50.982;7.032;2022-08-21T06:56:11;28.46;41.00
68177;DHT22;56478;50.982;7.032;2022-08-21T06:58:36;28.47;41.06
68177;DHT22;56478;50.982;7.032;2022-08-21T07:01:01;29.01;40.06
68177;DHT22;56478;50.982;7.032;2022-08-21T07:03:28;29.77;37.91
68177;DHT22;56478;50.982;7.032;2022-08-21T07:05:53;29.97;37.36
68177;DHT22;56478;50.982;7.032;2022-08-21T07:08:19;30.60;35.97
68177;DHT22;56478;50.982;7.032;2022-08-21T07:10:45;31.02;36.01
68177;DHT22;56478;50.982;7.032;2022-08-21T07:13:11;31.94;34.33
68177;DHT22;56478;50.982;7.032;2022-08-21T07:15:37;32.41;33.50
68177;DHT22;56478;50.982;7.032;2022-08-21T07:18:02;32.95;32.60
68177;DHT22;56478;50.982;7.032;2022-08-21T07:20:28;32.22;34.03
68177;DHT22;56478;50.982;7.032;2022-08-21T07:22:53;32.23;33.69
68177;DHT22;56478;50.982;7.032;2022-08-21T07:25:19;33.26;32.20
68177;DHT22;56478;50.982;7.032;2022-08-21T07:27:45;34.29;30.57
68177;DHT22;56478;50.982;7.032;2022-08-21T07:30:10;34.59;29.75
68177;DHT22;56478;50.982;7.032;2022-08-21T07:32:36;34.36;30.21
68177;DHT22;56478;50.982;7.032;2022-08-21T07:35:01;34.18;30.32
68177;DHT22;56478;50.982;7.032;2022-08-21T07:37:27;35.93;28.07
68177;DHT22;56478;50.982;7.032;2022-08-21T07:39:52;36.56;27.16
68177;DHT22;56478;50.982;7.032;2022-08-21T07:42:18;35.76;27.81
68177;DHT22;56478;50.982;7.032;2022-08-21T07:44:43;35.84;27.92
68177;DHT22;56478;50.982;7.032;2022-08-21T07:47:08;37.07;26.68
68177;DHT22;56478;50.982;7.032;2022-08-21T07:49:34;36.49;27.17
68177;DHT22;56478;50.982;7.032;2022-08-21T07:51:59;36.15;27.03
68177;DHT22;56478;50.982;7.032;2022-08-21T07:54:25;35.90;27.78
68177;DHT22;56478;50.982;7.032;2022-08-21T07:56:50;35.24;28.45
68177;DHT22;56478;50.982;7.032;2022-08-21T07:59:15;35.31;28.86
68177;DHT22;56478;50.982;7.032;2022-08-21T08:01:41;35.36;28.51
68177;DHT22;56478;50.982;7.032;2022-08-21T08:04:06;36.24;26.62
68177;DHT22;56478;50.982;7.032;2022-08-21T08:06:32;36.70;26.31
68177;DHT22;56478;50.982;7.032;2022-08-21T08:08:57;36.39;26.36
68177;DHT22;56478;50.982;7.032;2022-08-21T08:11:23;37.25;25.08
68177;DHT22;56478;50.982;7.032;2022-08-21T08:13:49;38.44;23.93
68177;DHT22;56478;50.982;7.032;2022-08-21T08:16:15;38.22;24.29
68177;DHT22;56478;50.982;7.032;2022-08-21T08:18:41;38.05;24.39
68177;DHT22;56478;50.982;7.032;2022-08-21T08:21:07;38.42;24.47
68177;DHT22;56478;50.982;7.032;2022-08-21T08:23:33;38.76;23.87
68177;DHT22;56478;50.982;7.032;2022-08-21T08:25:59;38.79;23.82
68177;DHT22;56478;50.982;7.032;2022-08-21T08:28:25;37.83;25.06
68177;DHT22;56478;50.982;7.032;2022-08-21T08:30:50;36.80;25.03
68177;DHT22;56478;50.982;7.032;2022-08-21T08:33:17;37.52;24.61
68177;DHT22;56478;50.982;7.032;2022-08-21T08:35:44;38.21;23.87
68177;DHT22;56478;50.982;7.032;2022-08-21T08:38:10;38.24;23.97
68177;DHT22;56478;50.982;7.032;2022-08-21T08:41:20;37.91;24.39
68177;DHT22;56478;50.982;7.032;2022-08-21T08:43:21;38.76;23.43
68177;DHT22;56478;50.982;7.032;2022-08-21T08:45:48;39.52;22.71
68177;DHT22;56478;50.982;7.032;2022-08-21T08:48:18;40.19;21.59
68177;DHT22;56478;50.982;7.032;2022-08-21T08:50:47;40.17;22.32
68177;DHT22;56478;50.982;7.032;2022-08-21T08:53:15;38.67;24.26
68177;DHT22;56478;50.982;7.032;2022-08-21T08:55:43;38.79;23.71
68177;DHT22;56478;50.982;7.032;2022-08-21T08:58:09;40.17;21.89
68177;DHT22;56478;50.982;7.032;2022-08-21T09:00:37;40.67;22.32
68177;DHT22;56478;50.982;7.032;2022-08-21T09:03:03;40.46;22.26
68177;DHT22;56478;50.982;7.032;2022-08-21T09:05:29;40.04;21.09
68177;DHT22;56478;50.982;7.032;2022-08-21T09:10:37;38.88;23.05
68177;DHT22;56478;50.982;7.032;2022-08-21T09:15:56;39.21;22.63
68177;DHT22;56478;50.982;7.032;2022-08-21T09:18:30;38.40;23.48
68177;DHT22;56478;50.982;7.032;2022-08-21T09:21:11;39.93;21.72
68177;DHT22;56478;50.982;7.032;2022-08-21T09:23:43;39.17;22.02
68177;DHT22;56478;50.982;7.032;2022-08-21T09:26:19;39.39;22.31
68177;DHT22;56478;50.982;7.032;2022-08-21T09:28:45;40.02;21.99
68177;DHT22;56478;50.982;7.032;2022-08-21T09:31:18;40.27;21.50
68177;DHT22;56478;50.982;7.032;2022-08-21T09:33:46;39.73;21.89
68177;DHT22;56478;50.982;7.032;2022-08-21T09:36:11;40.39;21.75
68177;DHT22;56478;50.982;7.032;2022-08-21T09:38:37;40.56;21.68
68177;DHT22;56478;50.982;7.032;2022-08-21T09:41:07;41.24;20.11
68177;DHT22;56478;50.982;7.032;2022-08-21T09:43:33;41.07;21.18
68177;DHT22;56478;50.982;7.032;2022-08-21T09:48:27;40.18;21.82
68177;DHT22;56478;50.982;7.032;2022-08-21T09:50:52;40.56;21.69
68177;DHT22;56478;50.982;7.032;2022-08-21T09:55:48;40.64;21.42
68177;DHT22;56478;50.982;7.032;2022-08-21T09:58:33;41.10;21.07
68177;DHT22;56478;50.982;7.032;2022-08-21T10:01:00;41.52;20.86
68177;DHT22;56478;50.982;7.032;2022-08-21T10:03:25;40.11;21.36
68177;DHT22;56478;50.982;7.032;2022-08-21T10:08:17;40.82;21.28
68177;DHT22;56478;50.982;7.032;2022-08-21T10:10:43;39.70;22.05
68177;DHT22;56478;50.982;7.032;2022-08-21T10:13:12;39.52;22.04
68177;DHT22;56478;50.982;7.032;2022-08-21T10:15:53;39.78;21.57
68177;DHT22;56478;50.982;7.032;2022-08-21T10:18:22;36.81;25.05
68177;DHT22;56478;50.982;7.032;2022-08-21T10:20:52;38.35;22.84
68177;DHT22;56478;50.982;7.032;2022-08-21T10:26:07;40.08;21.58
68177;DHT22;56478;50.982;7.032;2022-08-21T10:38:49;40.79;20.70
68177;DHT22;56478;50.982;7.032;2022-08-21T10:41:21;41.03;19.96
68177;DHT22;56478;50.982;7.032;2022-08-21T10:43:56;40.80;20.82
68177;DHT22;56478;50.982;7.032;2022-08-21T10:48:59;40.70;21.36
68177;DHT22;56478;50.982;7.032;2022-08-21T10:51:38;40.19;22.19
68177;DHT22;56478;50.982;7.032;2022-08-21T10:56:49;38.66;23.49
68177;DHT22;56478;50.982;7.032;2022-08-21T11:01:46;37.19;24.94
68177;DHT22;56478;50.982;7.032;2022-08-21T11:04:25;36.59;25.47
68177;DHT22;56478;50.982;7.032;2022-08-21T11:06:53;35.97;25.88
68177;DHT22;56478;50.982;7.032;2022-08-21T11:09:22;36.35;25.91
68177;DHT22;56478;50.982;7.032;2022-08-21T11:14:21;35.47;26.83
68177;DHT22;56478;50.982;7.032;2022-08-21T11:16:52;35.31;27.04
68177;DHT22;56478;50.982;7.032;2022-08-21T11:21:48;35.02;25.91
68177;DHT22;56478;50.982;7.032;2022-08-21T11:29:30;34.36;28.78
68177;DHT22;56478;50.982;7.032;2022-08-21T11:34:36;33.29;27.92
68177;DHT22;56478;50.982;7.032;2022-08-21T11:37:17;33.33;29.10
68177;DHT22;56478;50.982;7.032;2022-08-21T11:39:52;33.49;30.10
68177;DHT22;56478;50.982;7.032;2022-08-21T11:42:35;33.15;28.51
68177;DHT22;56478;50.982;7.032;2022-08-21T11:55:00;33.01;29.44
68177;DHT22;56478;50.982;7.032;2022-08-21T11:57:30;32.75;29.67
68177;DHT22;56478;50.982;7.032;2022-08-21T12:02:31;32.80;28.97
68177;DHT22;56478;50.982;7.032;2022-08-21T12:05:03;32.35;28.39
68177;DHT22;56478;50.982;7.032;2022-08-21T12:07:31;32.05;30.64
68177;DHT22;56478;50.982;7.032;2022-08-21T12:09:58;31.97;30.58
68177;DHT22;56478;50.982;7.032;2022-08-21T12:14:50;32.47;28.64
68177;DHT22;56478;50.982;7.032;2022-08-21T12:17:20;32.56;30.94
68177;DHT22;56478;50.982;7.032;2022-08-21T12:19:56;32.49;28.31
68177;DHT22;56478;50.982;7.032;2022-08-21T12:22:22;31.82;29.35
68177;DHT22;56478;50.982;7.032;2022-08-21T12:24:48;32.15;28.93
68177;DHT22;56478;50.982;7.032;2022-08-21T12:29:50;31.36;31.71
68177;DHT22;56478;50.982;7.032;2022-08-21T12:34:55;31.18;30.37
68177;DHT22;56478;50.982;7.032;2022-08-21T12:37:39;30.81;31.59
68177;DHT22;56478;50.982;7.032;2022-08-21T12:42:47;31.51;31.59
68177;DHT22;56478;50.982;7.032;2022-08-21T12:45:18;31.78;30.36
68177;DHT22;56478;50.982;7.032;2022-08-21T12:47:48;31.67;31.14
68177;DHT22;56478;50.982;7.032;2022-08-21T12:50:19;31.42;29.68
68177;DHT22;56478;50.982;7.032;2022-08-21T12:52:48;31.39;31.92
68177;DHT22;56478;50.982;7.032;2022-08-21T12:55:25;31.70;30.14
68177;DHT22;56478;50.982;7.032;2022-08-21T12:57:51;31.85;31.08
68177;DHT22;56478;50.982;7.032;2022-08-21T13:00:20;31.61;30.15
68177;DHT22;56478;50.982;7.032;2022-08-21T13:02:46;31.37;29.88
68177;DHT22;56478;50.982;7.032;2022-08-21T13:05:15;31.44;31.20
68177;DHT22;56478;50.982;7.032;2022-08-21T13:07:44;31.46;30.13
68177;DHT22;56478;50.982;7.032;2022-08-21T13:10:16;31.25;32.43
68177;DHT22;56478;50.982;7.032;2022-08-21T13:12:43;31.33;32.06
68177;DHT22;56478;50.982;7.032;2022-08-21T13:15:10;31.43;30.45
68177;DHT22;56478;50.982;7.032;2022-08-21T13:17:38;31.29;31.85
68177;DHT22;56478;50.982;7.032;2022-08-21T13:20:06;31.23;30.78
68177;DHT22;56478;50.982;7.032;2022-08-21T13:22:39;30.77;32.30
68177;DHT22;56478;50.982;7.032;2022-08-21T13:25:09;30.29;33.07
68177;DHT22;56478;50.982;7.032;2022-08-21T13:27:34;29.91;34.87
68177;DHT22;56478;50.982;7.032;2022-08-21T13:30:05;29.94;32.42
68177;DHT22;56478;50.982;7.032;2022-08-21T13:32:32;30.05;32.18
68177;DHT22;56478;50.982;7.032;2022-08-21T13:34:58;30.33;33.09
68177;DHT22;56478;50.982;7.032;2022-08-21T13:37:24;30.21;34.28
68177;DHT22;56478;50.982;7.032;2022-08-21T13:39:51;30.43;32.23
68177;DHT22;56478;50.982;7.032;2022-08-21T13:42:17;30.50;34.27
68177;DHT22;56478;50.982;7.032;2022-08-21T13:44:44;30.59;33.81
68177;DHT22;56478;50.982;7.032;2022-08-21T13:47:10;30.71;32.46
68177;DHT22;56478;50.982;7.032;2022-08-21T13:49:40;30.73;32.62
68177;DHT22;56478;50.982;7.032;2022-08-21T13:52:17;30.87;32.44
68177;DHT22;56478;50.982;7.032;2022-08-21T13:54:51;30.99;31.31
68177;DHT22;56478;50.982;7.032;2022-08-21T13:57:17;30.81;32.94
68177;DHT22;56478;50.982;7.032;2022-08-21T13:59:42;30.67;33.86
68177;DHT22;56478;50.982;7.032;2022-08-21T14:02:10;30.75;31.42
68177;DHT22;56478;50.982;7.032;2022-08-21T14:07:29;30.70;33.50
68177;DHT22;56478;50.982;7.032;2022-08-21T14:09:56;30.77;33.90
68177;DHT22;56478;50.982;7.032;2022-08-21T14:12:29;30.66;32.28
68177;DHT22;56478;50.982;7.032;2022-08-21T14:14:57;30.60;33.93
68177;DHT22;56478;50.982;7.032;2022-08-21T14:17:28;30.64;32.66
68177;DHT22;56478;50.982;7.032;2022-08-21T14:19:54;30.59;32.80
68177;DHT22;56478;50.982;7.032;2022-08-21T14:25:05;30.57;33.38
68177;DHT22;56478;50.982;7.032;2022-08-21T14:27:32;30.60;32.78
68177;DHT22;56478;50.982;7.032;2022-08-21T14:30:03;30.50;33.61
68177;DHT22;56478;50.982;7.032;2022-08-21T14:32:36;30.41;32.68
68177;DHT22;56478;50.982;7.032;2022-08-21T14:35:02;30.35;32.80
68177;DHT22;56478;50.982;7.032;2022-08-21T14:37:28;30.29;33.40
68177;DHT22;56478;50.982;7.032;2022-08-21T14:39:53;29.91;31.86
68177;DHT22;56478;50.982;7.032;2022-08-21T14:42:19;29.71;34.02
68177;DHT22;56478;50.982;7.032;2022-08-21T14:44:44;29.66;34.93
68177;DHT22;56478;50.982;7.032;2022-08-21T14:47:10;29.54;34.61
68177;DHT22;56478;50.982;7.032;2022-08-21T14:49:35;29.28;34.22
68177;DHT22;56478;50.982;7.032;2022-08-21T14:52:01;28.97;35.11
68177;DHT22;56478;50.982;7.032;2022-08-21T14:54:27;28.90;35.69
68177;DHT22;56478;50.982;7.032;2022-08-21T14:56:53;28.87;36.59
68177;DHT22;56478;50.982;7.032;2022-08-21T14:59:19;28.57;35.88
68177;DHT22;56478;50.982;7.032;2022-08-21T15:01:46;28.22;36.50
68177;DHT22;56478;50.982;7.032;2022-08-21T15:04:11;28.21;37.24
68177;DHT22;56478;50.982;7.032;2022-08-21T15:06:37;28.19;37.40
68177;DHT22;56478;50.982;7.032;2022-08-21T15:09:02;28.05;37.30
68177;DHT22;56478;50.982;7.032;2022-08-21T15:11:30;28.15;37.98
68177;DHT22;56478;50.982;7.032;2022-08-21T15:13:57;28.28;35.38
68177;DHT22;56478;50.982;7.032;2022-08-21T15:16:26;28.14;36.41
68177;DHT22;56478;50.982;7.032;2022-08-21T15:18:51;27.95;36.21
68177;DHT22;56478;50.982;7.032;2022-08-21T15:21:17;28.12;34.99
68177;DHT22;56478;50.982;7.032;2022-08-21T15:23:42;28.02;36.11
68177;DHT22;56478;50.982;7.032;2022-08-21T15:26:08;27.97;36.43
68177;DHT22;56478;50.982;7.032;2022-08-21T15:28:34;27.97;35.72
68177;DHT22;56478;50.982;7.032;2022-08-21T15:31:00;27.94;37.23
68177;DHT22;56478;50.982;7.032;2022-08-21T15:33:25;27.98;35.68
68177;DHT22;56478;50.982;7.032;2022-08-21T15:35:51;27.94;36.64
68177;DHT22;56478;50.982;7.032;2022-08-21T15:38:16;28.02;36.27
68177;DHT22;56478;50.982;7.032;2022-08-21T15:40:42;28.04;35.86
68177;DHT22;56478;50.982;7.032;2022-08-21T15:43:10;28.04;36.88
68177;DHT22;56478;50.982;7.032;2022-08-21T15:45:37;28.21;36.07
68177;DHT22;56478;50.982;7.032;2022-08-21T15:48:02;28.14;36.47
68177;DHT22;56478;50.982;7.032;2022-08-21T15:50:29;28.19;36.37
68177;DHT22;56478;50.982;7.032;2022-08-21T15:52:56;28.32;36.63
68177;DHT22;56478;50.982;7.032;2022-08-21T15:55:21;28.32;35.29
68177;DHT22;56478;50.982;7.032;2022-08-21T15:57:47;28.47;33.79
68177;DHT22;56478;50.982;7.032;2022-08-21T16:00:14;28.42;36.34
68177;DHT22;56478;50.982;7.032;2022-08-21T16:02:42;28.29;37.17
68177;DHT22;56478;50.982;7.032;2022-08-21T16:05:08;28.28;34.92
68177;DHT22;56478;50.982;7.032;2022-08-21T16:07:36;28.28;35.88
68177;DHT22;56478;50.982;7.032;2022-08-21T16:10:02;28.11;36.42
68177;DHT22;56478;50.982;7.032;2022-08-21T16:12:32;28.04;36.11
68177;DHT22;56478;50.982;7.032;2022-08-21T16:14:59;28.09;37.43
68177;DHT22;56478;50.982;7.032;2022-08-21T16:17:30;28.02;36.38
68177;DHT22;56478;50.982;7.032;2022-08-21T16:19:56;28.00;36.17
68177;DHT22;56478;50.982;7.032;2022-08-21T16:22:22;28.11;38.34
68177;DHT22;56478;50.982;7.032;2022-08-21T16:24:48;28.16;36.96
68177;DHT22;56478;50.982;7.032;2022-08-21T16:27:13;28.14;37.94
68177;DHT22;56478;50.982;7.032;2022-08-21T16:29:39;28.22;39.12
68177;DHT22;56478;50.982;7.032;2022-08-21T16:32:04;28.31;37.52
68177;DHT22;56478;50.982;7.032;2022-08-21T16:34:30;28.18;37.31
68177;DHT22;56478;50.982;7.032;2022-08-21T16:36:56;28.33;38.39
68177;DHT22;56478;50.982;7.032;2022-08-21T16:39:21;28.49;35.33
68177;DHT22;56478;50.982;7.032;2022-08-21T16:41:47;28.42;37.37
68177;DHT22;56478;50.982;7.032;2022-08-21T16:44:13;28.50;34.98